createdAt,value
2018-10-09T00:00:03.947Z,100492.22
2018-10-09T00:02:31.442Z,100496.36
2018-10-09T00:05:00.283Z,100491.72
2018-10-09T00:07:28.185Z,100494.48
2018-10-09T00:09:55.699Z,100493.16
2018-10-09T00:12:23.200Z,100492.75
2018-10-09T00:14:51.963Z,100484.42
2018-10-09T00:17:19.441Z,100483.67
2018-10-09T00:19:46.914Z,100481.02
2018-10-09T00:22:14.435Z,100478.82
2018-10-09T00:24:42.210Z,100474.96
2018-10-09T00:27:09.655Z,100468.79
2018-10-09T00:29:37.139Z,100456.11
2018-10-09T00:32:04.968Z,100457.05
2018-10-09T00:34:32.438Z,100461.03
2018-10-09T00:36:59.955Z,100455.36
2018-10-09T00:39:27.411Z,100456.27
2018-10-09T00:41:55.231Z,100452.78
2018-10-09T00:44:22.702Z,100452.88
2018-10-09T00:46:50.157Z,100449.84
2018-10-09T00:49:18.022Z,100449.47
2018-10-09T00:51:45.535Z,100453.82
2018-10-09T00:54:13.004Z,100456.84
2018-10-09T00:56:40.559Z,100462.16
2018-10-09T00:59:08.501Z,100459.62
2018-10-09T01:01:36.033Z,100460.65
2018-10-09T01:04:03.599Z,100467.73
2018-10-09T01:06:31.469Z,100472.66
2018-10-09T01:08:59.861Z,100479.29
2018-10-09T01:11:27.385Z,100470.09
2018-10-09T01:13:55.254Z,100466.11
2018-10-09T01:16:22.769Z,100454.84
2018-10-09T01:18:50.245Z,100455.33
2018-10-09T01:21:18.041Z,100460.14
2018-10-09T01:23:45.535Z,100473.02
2018-10-09T01:26:13.050Z,100475.67
2018-10-09T01:28:40.539Z,100473.52
2018-10-09T01:31:08.474Z,100466.97
2018-10-09T01:33:35.950Z,100464.97
2018-10-09T01:36:03.425Z,100463.35
2018-10-09T01:38:31.242Z,100471.50
2018-10-09T01:40:58.732Z,100470.17
2018-10-09T01:43:26.226Z,100467.23
2018-10-09T01:45:53.702Z,100470.91
2018-10-09T01:48:21.487Z,100470.23
2018-10-09T01:50:48.947Z,100472.13
2018-10-09T01:53:16.415Z,100473.54
2018-10-09T01:55:44.279Z,100474.48
2018-10-09T01:58:11.736Z,100466.23
2018-10-09T02:00:39.865Z,100466.32
2018-10-09T02:03:07.345Z,100470.70
2018-10-09T02:05:35.092Z,100479.03
2018-10-09T02:08:02.603Z,100476.01
2018-10-09T02:10:30.180Z,100478.09
2018-10-09T02:12:58.133Z,100482.44
2018-10-09T02:15:26.239Z,100488.98
2018-10-09T02:17:53.804Z,100481.98
2018-10-09T02:20:21.284Z,100488.20
2018-10-09T02:22:49.177Z,100494.14
2018-10-09T02:25:16.664Z,100492.45
2018-10-09T02:27:44.210Z,100484.98
2018-10-09T02:30:12.217Z,100479.77
2018-10-09T02:32:39.696Z,100474.66
2018-10-09T02:35:07.198Z,100477.95
2018-10-09T02:37:34.780Z,100476.79
2018-10-09T02:40:02.569Z,100474.41
2018-10-09T02:42:31.057Z,100473.36
2018-10-09T02:44:58.556Z,100470.52
2018-10-09T02:47:26.381Z,100466.70
2018-10-09T02:49:53.881Z,100465.08
2018-10-09T02:52:21.796Z,100457.41
2018-10-09T02:54:49.301Z,100450.11
2018-10-09T02:57:17.256Z,100441.86
2018-10-09T02:59:44.768Z,100446.78
2018-10-09T03:02:12.273Z,100438.54
2018-10-09T03:04:39.781Z,100432.11
2018-10-09T03:07:07.708Z,100425.19
2018-10-09T03:09:35.193Z,100420.08
2018-10-09T03:12:02.789Z,100413.09
2018-10-09T03:14:30.701Z,100409.57
2018-10-09T03:16:58.220Z,100401.33
2018-10-09T03:19:29.513Z,100393.95
2018-10-09T03:21:57.377Z,100392.71
2018-10-09T03:24:25.513Z,100392.33
2018-10-09T03:26:52.997Z,100394.98
2018-10-09T03:29:20.989Z,100394.15
2018-10-09T03:31:48.506Z,100388.36
2018-10-09T03:34:16.037Z,100394.52
2018-10-09T03:36:43.960Z,100390.55
2018-10-09T03:39:11.472Z,100389.61
2018-10-09T03:41:39.233Z,100385.64
2018-10-09T03:44:06.735Z,100390.06
2018-10-09T03:46:34.270Z,100387.91
2018-10-09T03:49:02.260Z,100391.02
2018-10-09T03:51:29.760Z,100391.50
2018-10-09T03:53:57.306Z,100395.92
2018-10-09T03:56:24.864Z,100403.87
2018-10-09T03:58:52.916Z,100407.08
2018-10-09T04:01:20.405Z,100407.65
2018-10-09T04:03:47.916Z,100408.67
2018-10-09T04:06:15.901Z,100409.62
2018-10-09T04:08:43.413Z,100409.69
2018-10-09T04:11:10.948Z,100410.15
2018-10-09T04:13:38.521Z,100415.82
2018-10-09T04:16:06.020Z,100414.98
2018-10-09T04:18:33.987Z,100415.82
2018-10-09T04:21:01.468Z,100407.42
2018-10-09T04:23:28.972Z,100409.69
2018-10-09T04:25:56.513Z,100407.42
2018-10-09T04:28:24.397Z,100411.58
2018-10-09T04:30:53.108Z,100407.31
2018-10-09T04:33:21.412Z,100411.36
2018-10-09T04:35:49.271Z,100412.48
2018-10-09T04:38:16.766Z,100411.70
2018-10-09T04:40:44.284Z,100412.45
2018-10-09T04:43:12.257Z,100405.68
2018-10-09T04:45:39.857Z,100415.20
2018-10-09T04:48:07.372Z,100415.20
2018-10-09T04:50:35.254Z,100417.70
2018-10-09T04:53:02.868Z,100412.30
2018-10-09T04:55:30.353Z,100409.66
2018-10-09T04:57:58.244Z,100407.80
2018-10-09T05:00:25.784Z,100411.95
2018-10-09T05:02:53.293Z,100406.97
2018-10-09T05:05:21.209Z,100406.78
2018-10-09T05:07:48.712Z,100411.92
2018-10-09T05:10:16.221Z,100417.97
2018-10-09T05:12:44.201Z,100418.73
2018-10-09T05:15:11.705Z,100420.84
2018-10-09T05:17:39.539Z,100428.22
2018-10-09T05:20:07.653Z,100426.41
2018-10-09T05:22:35.160Z,100433.44
2018-10-09T05:25:02.725Z,100441.38
2018-10-09T05:27:31.117Z,100441.16
2018-10-09T05:29:58.655Z,100439.22
2018-10-09T05:32:26.360Z,100439.86
2018-10-09T05:34:54.180Z,100435.13
2018-10-09T05:37:21.683Z,100439.18
2018-10-09T05:39:49.262Z,100439.59
2018-10-09T05:42:17.161Z,100435.52
2018-10-09T05:44:44.677Z,100435.52
2018-10-09T05:47:13.275Z,100442.12
2018-10-09T05:49:41.152Z,100447.05
2018-10-09T05:52:08.644Z,100449.31
2018-10-09T05:54:36.187Z,100452.52
2018-10-09T05:57:04.904Z,100454.94
2018-10-09T05:59:32.415Z,100459.92
2018-10-09T06:01:59.918Z,100465.39
2018-10-09T06:04:27.760Z,100472.95
2018-10-09T06:06:55.269Z,100472.57
2018-10-09T06:09:22.764Z,100473.52
2018-10-09T06:11:50.708Z,100473.41
2018-10-09T06:14:18.549Z,100475.98
2018-10-09T06:16:46.065Z,100485.84
2018-10-09T06:19:13.923Z,100479.73
2018-10-09T06:21:41.432Z,100483.38
2018-10-09T06:24:10.096Z,100486.14
2018-10-09T06:26:37.953Z,100487.59
2018-10-09T06:29:05.454Z,100487.17
2018-10-09T06:31:33.933Z,100478.41
2018-10-09T06:34:01.804Z,100480.64
2018-10-09T06:36:29.288Z,100480.67
2018-10-09T06:38:57.634Z,100477.19
2018-10-09T06:41:25.620Z,100480.44
2018-10-09T06:43:53.121Z,100482.62
2018-10-09T06:46:21.128Z,100481.14
2018-10-09T06:48:49.821Z,100484.69
2018-10-09T06:51:17.480Z,100481.41
2018-10-09T06:53:45.257Z,100487.56
2018-10-09T06:56:14.346Z,100493.19
2018-10-09T06:58:41.873Z,100490.92
2018-10-09T07:01:09.515Z,100488.96
2018-10-09T07:03:37.518Z,100497.40
2018-10-09T07:06:06.275Z,100496.12
2018-10-09T07:08:33.833Z,100494.34
2018-10-09T07:11:02.644Z,100496.88
2018-10-09T07:13:30.185Z,100499.44
2018-10-09T07:15:57.815Z,100501.58
2018-10-09T07:18:25.890Z,100497.86
2018-10-09T07:20:53.466Z,100493.56
2018-10-09T07:23:21.124Z,100500.63
2018-10-09T07:25:49.834Z,100503.81
2018-10-09T07:28:17.571Z,100507.56
2018-10-09T07:30:45.281Z,100509.60
2018-10-09T07:33:14.085Z,100519.25
2018-10-09T07:35:41.625Z,100516.09
2018-10-09T07:38:09.241Z,100514.42
2018-10-09T07:40:37.302Z,100514.61
2018-10-09T07:43:05.975Z,100511.13
2018-10-09T07:45:33.584Z,100513.05
2018-10-09T07:48:02.197Z,100517.22
2018-10-09T07:50:30.822Z,100518.55
2018-10-09T07:53:00.092Z,100523.88
2018-10-09T07:55:28.177Z,100524.34
2018-10-09T07:57:55.782Z,100524.71
2018-10-09T08:00:23.546Z,100521.73
2018-10-09T08:02:51.595Z,100519.61
2018-10-09T08:05:20.290Z,100522.81
2018-10-09T08:07:47.925Z,100521.03
2018-10-09T08:10:16.023Z,100522.48
2018-10-09T08:12:43.626Z,100524.25
2018-10-09T08:15:12.377Z,100525.13
2018-10-09T08:17:44.383Z,100516.59
2018-10-09T08:20:12.182Z,100515.31
2018-10-09T08:22:39.913Z,100519.33
2018-10-09T08:25:08.119Z,100518.02
2018-10-09T08:27:35.836Z,100517.67
2018-10-09T08:30:03.458Z,100532.91
2018-10-09T08:32:31.500Z,100520.69
2018-10-09T08:34:59.164Z,100522.90
2018-10-09T08:37:26.768Z,100533.48
2018-10-09T08:39:55.730Z,100534.35
2018-10-09T08:42:24.370Z,100526.73
2018-10-09T08:44:52.720Z,100526.99
2018-10-09T08:47:21.364Z,100521.06
2018-10-09T08:49:49.193Z,100517.76
2018-10-09T08:52:16.825Z,100514.53
2018-10-09T08:54:44.797Z,100509.23
2018-10-09T08:57:12.409Z,100501.37
2018-10-09T08:59:40.037Z,100501.67
2018-10-09T09:02:07.946Z,100501.12
2018-10-09T09:04:35.567Z,100511.16
2018-10-09T09:07:04.095Z,100506.30
2018-10-09T09:09:33.458Z,100508.46
2018-10-09T09:12:01.077Z,100516.53
2018-10-09T09:14:29.659Z,100509.14
2018-10-09T09:16:58.246Z,100511.20
2018-10-09T09:19:25.867Z,100508.52
2018-10-09T09:21:54.133Z,100504.64
2018-10-09T09:24:22.020Z,100504.39
2018-10-09T09:26:50.380Z,100502.67
2018-10-09T09:29:17.913Z,100503.84
2018-10-09T09:31:45.804Z,100504.02
2018-10-09T09:34:13.374Z,100510.34
2018-10-09T09:36:41.017Z,100506.86
2018-10-09T09:39:10.422Z,100509.58
2018-10-09T09:41:38.064Z,100505.13
2018-10-09T09:44:05.658Z,100501.24
2018-10-09T09:46:34.626Z,100496.53
2018-10-09T09:49:03.291Z,100492.66
2018-10-09T09:51:30.883Z,100486.22
2018-10-09T09:53:58.878Z,100486.98
2018-10-09T09:56:26.485Z,100486.94
2018-10-09T09:58:54.289Z,100489.92
2018-10-09T10:01:27.274Z,100486.03
2018-10-09T10:03:55.673Z,100491.70
2018-10-09T10:06:23.296Z,100487.05
2018-10-09T10:08:52.021Z,100484.87
2018-10-09T10:11:19.597Z,100477.49
2018-10-09T10:13:48.407Z,100487.48
2018-10-09T10:16:16.555Z,100480.97
2018-10-09T10:18:44.728Z,100490.95
2018-10-09T10:21:12.340Z,100483.98
2018-10-09T10:23:40.266Z,100483.70
2018-10-09T10:26:09.321Z,100480.84
2018-10-09T10:28:36.926Z,100482.99
2018-10-09T10:31:04.869Z,100486.70
2018-10-09T10:33:32.475Z,100487.41
2018-10-09T10:36:00.831Z,100477.57
2018-10-09T10:38:28.888Z,100474.47
2018-10-09T10:41:00.933Z,100468.83
2018-10-09T10:43:29.118Z,100469.72
2018-10-09T10:45:57.551Z,100466.97
2018-10-09T10:48:26.549Z,100463.53
2018-10-09T10:50:54.552Z,100461.84
2018-10-09T10:53:22.192Z,100458.00
2018-10-09T10:55:49.799Z,100453.27
2018-10-09T10:58:17.718Z,100450.39
2018-10-09T11:00:46.364Z,100453.68
2018-10-09T11:03:14.847Z,100453.36
2018-10-09T11:05:42.754Z,100445.83
2018-10-09T11:08:12.713Z,100442.72
2018-10-09T11:10:41.730Z,100438.08
2018-10-09T11:13:11.276Z,100430.27
2018-10-09T11:15:39.206Z,100427.72
2018-10-09T11:18:07.440Z,100429.80
2018-10-09T11:20:35.513Z,100429.64
2018-10-09T11:25:38.821Z,100429.03
2018-10-09T11:28:07.061Z,100429.76
2018-10-09T11:30:39.316Z,100426.51
2018-10-09T11:33:07.310Z,100428.02
2018-10-09T11:35:34.922Z,100430.80
2018-10-09T11:38:02.480Z,100433.07
2018-10-09T11:40:30.492Z,100435.41
2018-10-09T11:42:58.410Z,100437.10
2018-10-09T11:45:26.013Z,100430.17
2018-10-09T11:47:54.609Z,100433.27
2018-10-09T11:50:23.262Z,100437.33
2018-10-09T11:52:52.079Z,100434.55
2018-10-09T11:55:21.357Z,100428.16
2018-10-09T11:57:49.902Z,100424.59
2018-10-09T12:00:17.543Z,100414.41
2018-10-09T12:02:46.301Z,100419.95
2018-10-09T12:05:17.349Z,100405.03
2018-10-09T12:07:44.951Z,100396.34
2018-10-09T12:10:14.294Z,100397.44
2018-10-09T12:12:42.957Z,100398.11
2018-10-09T12:15:13.072Z,100390.50
2018-10-09T12:17:41.257Z,100394.20
2018-10-09T12:20:08.878Z,100393.43
2018-10-09T12:22:36.981Z,100391.52
2018-10-09T12:25:06.193Z,100389.06
2018-10-09T12:27:34.352Z,100388.02
2018-10-09T12:30:02.018Z,100380.69
2018-10-09T12:32:30.092Z,100382.86
2018-10-09T12:34:58.297Z,100381.00
2018-10-09T12:37:27.054Z,100381.91
2018-10-09T12:39:56.558Z,100378.50
2018-10-09T12:42:24.229Z,100370.27
2018-10-09T12:44:54.817Z,100375.92
2018-10-09T12:47:23.739Z,100365.56
2018-10-09T12:49:52.231Z,100370.52
2018-10-09T12:52:19.881Z,100369.20
2018-10-09T12:54:47.817Z,100369.45
2018-10-09T12:57:19.368Z,100367.55
2018-10-09T12:59:46.986Z,100369.75
2018-10-09T13:02:16.532Z,100365.45
2018-10-09T13:04:44.495Z,100367.55
2018-10-09T13:07:13.817Z,100359.58
2018-10-09T13:09:41.810Z,100362.29
2018-10-09T13:12:11.756Z,100354.52
2018-10-09T13:14:39.389Z,100362.03
2018-10-09T13:17:07.513Z,100363.34
2018-10-09T13:19:36.302Z,100364.81
2018-10-09T13:22:05.094Z,100354.20
2018-10-09T13:24:33.810Z,100362.85
2018-10-09T13:27:01.444Z,100351.63
2018-10-09T13:29:29.081Z,100358.66
2018-10-09T13:31:57.877Z,100356.27
2018-10-09T13:34:25.861Z,100352.91
2018-10-09T13:36:53.469Z,100348.06
2018-10-09T13:39:21.494Z,100351.88
2018-10-09T13:41:49.592Z,100344.23
2018-10-09T13:44:17.323Z,100342.68
2018-10-09T13:46:45.982Z,100341.34
2018-10-09T13:49:13.610Z,100349.11
2018-10-09T13:51:41.671Z,100341.07
2018-10-09T13:54:09.659Z,100339.30
2018-10-09T13:56:40.025Z,100337.16
2018-10-09T13:59:09.329Z,100340.77
2018-10-09T14:01:38.080Z,100344.06
2018-10-09T14:04:05.717Z,100337.52
2018-10-09T14:06:34.504Z,100342.16
2018-10-09T14:09:02.737Z,100337.80
2018-10-09T14:11:30.340Z,100342.95
2018-10-09T14:13:59.049Z,100342.02
2018-10-09T14:16:26.697Z,100344.80
2018-10-09T14:18:54.301Z,100346.19
2018-10-09T14:21:22.428Z,100341.30
2018-10-09T14:23:50.005Z,100340.15
2018-10-09T14:26:18.567Z,100339.68
2018-10-09T14:28:46.615Z,100338.36
2018-10-09T14:31:15.485Z,100339.56
2018-10-09T14:33:45.113Z,100338.92
2018-10-09T14:36:13.269Z,100334.88
2018-10-09T14:38:40.965Z,100332.23
2018-10-09T14:41:08.536Z,100333.44
2018-10-09T14:43:36.455Z,100338.04
2018-10-09T14:46:04.089Z,100339.04
2018-10-09T14:48:32.514Z,100333.35
2018-10-09T14:51:01.550Z,100335.77
2018-10-09T14:53:30.016Z,100335.47
2018-10-09T14:55:58.203Z,100336.56
2018-10-09T14:58:26.145Z,100337.62
2018-10-09T15:00:53.782Z,100335.46
2018-10-09T15:03:21.396Z,100336.52
2018-10-09T15:05:49.354Z,100342.49
2018-10-09T15:08:17.254Z,100341.86
2018-10-09T15:10:45.455Z,100343.23
2018-10-09T15:13:13.333Z,100343.26
2018-10-09T15:15:42.207Z,100349.56
2018-10-09T15:18:10.447Z,100349.94
2018-10-09T15:20:38.408Z,100353.52
2018-10-09T15:23:08.236Z,100360.52
2018-10-09T15:25:36.674Z,100363.09
2018-10-09T15:28:04.598Z,100360.27
2018-10-09T15:30:32.238Z,100363.69
2018-10-09T15:32:59.830Z,100368.18
2018-10-09T15:35:28.422Z,100365.03
2018-10-09T15:37:56.079Z,100362.55
2018-10-09T15:40:23.636Z,100357.88
2018-10-09T15:42:52.262Z,100356.73
2018-10-09T15:45:20.461Z,100360.53
2018-10-09T15:47:48.106Z,100358.02
2018-10-09T15:50:18.412Z,100365.01
2018-10-09T15:52:50.643Z,100366.56
2018-10-09T15:55:21.353Z,100375.67
2018-10-09T15:57:49.519Z,100371.81
2018-10-09T16:00:19.708Z,100382.45
2018-10-09T16:02:47.286Z,100375.36
2018-10-09T16:05:16.161Z,100378.23
2018-10-09T16:07:43.868Z,100370.11
2018-10-09T16:10:11.566Z,100368.17
2018-10-09T16:12:40.173Z,100370.83
2018-10-09T16:15:09.722Z,100372.14
2018-10-09T16:17:38.490Z,100377.66
2018-10-09T16:20:07.381Z,100378.27
2018-10-09T16:22:35.921Z,100375.34
2018-10-09T16:25:03.556Z,100377.62
2018-10-09T16:27:32.198Z,100378.41
2018-10-09T16:30:00.422Z,100376.30
2018-10-09T16:32:29.051Z,100373.36
2018-10-09T16:34:57.201Z,100377.68
2018-10-09T16:39:59.820Z,100380.34
2018-10-09T16:42:28.940Z,100384.27
2018-10-09T16:44:56.545Z,100385.48
2018-10-09T16:47:24.183Z,100388.39
2018-10-09T16:49:52.949Z,100390.63
2018-10-09T16:52:24.390Z,100392.32
2018-10-09T16:54:52.688Z,100391.20
2018-10-09T16:57:21.103Z,100394.28
2018-10-09T16:59:48.674Z,100393.98
2018-10-09T17:02:16.323Z,100392.55
2018-10-09T17:04:44.413Z,100394.65
2018-10-09T17:07:12.025Z,100393.69
2018-10-09T17:09:39.593Z,100405.78
2018-10-09T17:12:07.610Z,100405.67
2018-10-09T17:14:36.103Z,100407.55
2018-10-09T17:17:03.761Z,100411.60
2018-10-09T17:19:32.399Z,100413.95
2018-10-09T17:22:00.361Z,100417.52
2018-10-09T17:24:29.022Z,100416.56
2018-10-09T17:26:58.094Z,100420.45
2018-10-09T17:29:26.417Z,100422.14
2018-10-09T17:31:54.021Z,100420.02
2018-10-09T17:34:22.100Z,100419.02
2018-10-09T17:36:50.828Z,100419.10
2018-10-09T17:39:20.119Z,100423.69
2018-10-09T17:41:48.113Z,100417.56
2018-10-09T17:44:19.497Z,100417.73
2018-10-09T17:46:47.798Z,100416.08
2018-10-09T17:49:16.653Z,100419.34
2018-10-09T17:51:44.261Z,100424.40
2018-10-09T17:54:12.804Z,100426.45
2018-10-09T17:56:41.886Z,100428.68
2018-10-09T17:59:09.905Z,100425.20
2018-10-09T18:01:38.330Z,100424.91
2018-10-09T18:04:06.290Z,100428.27
2018-10-09T18:06:33.866Z,100427.97
2018-10-09T18:09:01.730Z,100427.45
2018-10-09T18:11:30.722Z,100427.63
2018-10-09T18:13:58.341Z,100422.93
2018-10-09T18:16:26.445Z,100421.17
2018-10-09T18:18:55.291Z,100423.39
2018-10-09T18:21:23.714Z,100422.22
2018-10-09T18:23:51.346Z,100425.94
2018-10-09T18:26:20.133Z,100426.70
2018-10-09T18:28:49.826Z,100432.08
2018-10-09T18:31:17.474Z,100438.11
2018-10-09T18:33:45.412Z,100439.96
2018-10-09T18:36:13.813Z,100444.02
2018-10-09T18:38:41.360Z,100449.41
2018-10-09T18:41:09.483Z,100442.52
2018-10-09T18:43:37.036Z,100440.71
2018-10-09T18:46:04.626Z,100435.52
2018-10-09T18:48:32.588Z,100441.38
2018-10-09T18:51:02.117Z,100440.90
2018-10-09T18:53:29.728Z,100434.13
2018-10-09T18:55:57.622Z,100442.42
2018-10-09T18:58:25.324Z,100438.28
2018-10-09T19:00:54.546Z,100438.79
2018-10-09T19:03:24.362Z,100438.70
2018-10-09T19:05:52.553Z,100448.18
2018-10-09T19:08:20.148Z,100447.22
2018-10-09T19:10:48.742Z,100445.55
2018-10-09T19:13:16.533Z,100446.77
2018-10-09T19:15:44.289Z,100447.86
2018-10-09T19:18:14.954Z,100437.16
2018-10-09T19:20:42.545Z,100444.95
2018-10-09T19:23:10.493Z,100447.00
2018-10-09T19:25:39.741Z,100449.68
2018-10-09T19:28:08.014Z,100451.02
2018-10-09T19:30:38.083Z,100452.59
2018-10-09T19:33:06.633Z,100456.50
2018-10-09T19:35:36.271Z,100453.70
2018-10-09T19:38:09.547Z,100458.23
2018-10-09T19:40:39.625Z,100464.04
2018-10-09T19:43:07.244Z,100460.63
2018-10-09T19:45:35.246Z,100460.29
2018-10-09T19:48:02.837Z,100464.06
2018-10-09T19:50:31.796Z,100466.86
2018-10-09T19:53:00.481Z,100470.87
2018-10-09T19:55:28.074Z,100463.59
2018-10-09T19:57:57.312Z,100469.66
2018-10-09T20:00:26.173Z,100462.73
2018-10-09T20:02:55.985Z,100469.27
2018-10-09T20:05:24.430Z,100476.56
2018-10-09T20:07:52.549Z,100479.60
2018-10-09T20:10:20.166Z,100471.95
2018-10-09T20:12:48.637Z,100478.13
2018-10-09T20:15:16.781Z,100478.38
2018-10-09T20:17:49.389Z,100474.98
2018-10-09T20:20:18.087Z,100483.36
2018-10-09T20:22:46.238Z,100471.09
2018-10-09T20:25:13.934Z,100469.75
2018-10-09T20:27:41.650Z,100475.34
2018-10-09T20:30:10.252Z,100466.72
2018-10-09T20:32:37.957Z,100474.95
2018-10-09T20:35:05.602Z,100472.89
2018-10-09T20:37:33.593Z,100470.33
2018-10-09T20:40:01.308Z,100466.94
2018-10-09T20:42:29.085Z,100471.30
2018-10-09T20:44:57.236Z,100470.84
2018-10-09T20:48:28.076Z,100470.94
2018-10-09T20:50:56.071Z,100474.22
2018-10-09T20:53:24.497Z,100471.41
2018-10-09T20:55:52.853Z,100468.13
2018-10-09T20:58:21.957Z,100467.14
2018-10-09T21:00:50.249Z,100463.03
2018-10-09T21:03:19.681Z,100459.13
2018-10-09T21:05:48.734Z,100454.88
2018-10-09T21:08:16.776Z,100458.52
2018-10-09T21:10:44.535Z,100458.52
2018-10-09T21:13:13.682Z,100453.18
2018-10-09T21:15:42.677Z,100458.16
2018-10-09T21:18:11.228Z,100456.45
2018-10-09T21:20:39.260Z,100457.40
2018-10-09T21:23:07.122Z,100457.53
2018-10-09T21:25:35.481Z,100452.81
2018-10-09T21:28:03.509Z,100452.20
2018-10-09T21:30:31.205Z,100454.10
2018-10-09T21:32:59.150Z,100457.48
2018-10-09T21:35:27.300Z,100458.45
2018-10-09T21:37:55.131Z,100460.40
2018-10-09T21:40:22.834Z,100462.09
2018-10-09T21:42:50.939Z,100456.40
2018-10-09T21:45:19.111Z,100458.70
2018-10-09T21:47:51.908Z,100461.98
2018-10-09T21:50:20.697Z,100464.39
2018-10-09T21:52:48.384Z,100460.30
2018-10-09T21:55:17.479Z,100457.77
2018-10-09T21:57:45.660Z,100454.08
2018-10-09T22:00:13.684Z,100454.79
2018-10-09T22:02:44.306Z,100465.70
2018-10-09T22:05:13.257Z,100465.08
2018-10-09T22:07:40.969Z,100466.15
2018-10-09T22:10:08.732Z,100461.78
2018-10-09T22:12:36.868Z,100463.83
2018-10-09T22:15:04.602Z,100468.06
2018-10-09T22:17:32.357Z,100465.50
2018-10-09T22:20:00.677Z,100466.31
2018-10-09T22:22:28.373Z,100468.75
2018-10-09T22:24:56.068Z,100465.69
2018-10-09T22:27:24.337Z,100456.95
2018-10-09T22:29:53.187Z,100457.06
2018-10-09T22:32:21.692Z,100463.36
2018-10-09T22:34:49.669Z,100460.33
2018-10-09T22:37:17.795Z,100457.66
2018-10-09T22:39:45.629Z,100450.64
2018-10-09T22:42:14.238Z,100451.14
2018-10-09T22:44:42.304Z,100454.63
2018-10-09T22:47:09.996Z,100452.94
2018-10-09T22:49:37.705Z,100451.00
2018-10-09T22:52:05.693Z,100445.67
2018-10-09T22:54:33.430Z,100452.59
2018-10-09T22:57:01.189Z,100439.73
2018-10-09T22:59:31.267Z,100442.41
2018-10-09T23:01:59.024Z,100443.73
2018-10-09T23:04:26.737Z,100443.24
2018-10-09T23:06:54.824Z,100442.82
2018-10-09T23:09:23.545Z,100446.06
2018-10-09T23:11:51.265Z,100443.11
2018-10-09T23:14:19.009Z,100440.52
2018-10-09T23:16:47.022Z,100439.25
2018-10-09T23:19:14.747Z,100442.02
2018-10-09T23:21:42.500Z,100440.55
2018-10-09T23:24:10.655Z,100437.63
2018-10-09T23:26:38.437Z,100440.89
2018-10-09T23:29:06.173Z,100442.78
2018-10-09T23:31:33.944Z,100444.72
2018-10-09T23:34:02.177Z,100443.11
2018-10-09T23:36:29.879Z,100447.24
2018-10-09T23:38:58.224Z,100442.11
2018-10-09T23:41:25.922Z,100445.84
2018-10-09T23:43:53.980Z,100445.38
2018-10-09T23:46:21.725Z,100446.34
2018-10-09T23:48:49.439Z,100441.21
2018-10-09T23:51:17.201Z,100437.08
2018-10-09T23:53:45.209Z,100446.36
2018-10-09T23:56:15.105Z,100437.24
2018-10-09T23:58:42.821Z,100444.03
